createdAt,value
2023-05-17T00:01:39.922Z,17.69
2023-05-17T00:04:06.703Z,17.51
2023-05-17T00:06:35.491Z,17.40
2023-05-17T00:09:02.569Z,17.58
2023-05-17T00:11:30.431Z,17.62
2023-05-17T00:13:57.647Z,17.69
2023-05-17T00:16:24.356Z,17.70
2023-05-17T00:18:51.600Z,17.69
2023-05-17T00:21:18.882Z,17.65
2023-05-17T00:23:47.951Z,17.54
2023-05-17T00:26:15.262Z,17.44
2023-05-17T00:28:42.438Z,17.37
2023-05-17T00:31:10.009Z,17.52
2023-05-17T00:33:37.315Z,17.38
2023-05-17T00:36:05.667Z,17.62
2023-05-17T00:38:32.557Z,17.32
2023-05-17T00:41:01.627Z,17.43
2023-05-17T00:43:29.419Z,17.57
2023-05-17T00:45:57.053Z,17.55
2023-05-17T00:48:25.457Z,17.51
2023-05-17T00:50:53.218Z,17.53
2023-05-17T00:53:21.761Z,17.54
2023-05-17T00:55:49.720Z,17.32
2023-05-17T00:58:18.715Z,17.32
2023-05-17T01:00:47.257Z,17.34
2023-05-17T01:03:14.381Z,17.28
2023-05-17T01:05:42.043Z,17.19
2023-05-17T01:08:09.489Z,17.30
2023-05-17T01:10:44.835Z,17.18
2023-05-17T01:13:18.958Z,17.15
2023-05-17T01:15:57.291Z,17.16
2023-05-17T01:18:35.318Z,17.16
2023-05-17T01:21:12.970Z,17.18
2023-05-17T01:23:54.787Z,17.24
2023-05-17T01:26:36.460Z,17.28
2023-05-17T01:29:06.065Z,17.23
2023-05-17T01:31:34.308Z,17.17
2023-05-17T01:34:01.569Z,17.07
2023-05-17T01:36:29.296Z,16.90
2023-05-17T01:38:56.768Z,16.87
2023-05-17T01:41:29.682Z,17.02
2023-05-17T01:44:07.813Z,17.11
2023-05-17T01:46:40.945Z,17.13
2023-05-17T01:49:13.752Z,17.04
2023-05-17T01:51:48.848Z,17.06
2023-05-17T01:54:20.457Z,16.99
2023-05-17T01:56:56.460Z,16.95
2023-05-17T01:59:26.286Z,16.83
2023-05-17T02:01:56.375Z,16.87
2023-05-17T02:04:26.318Z,16.95
2023-05-17T02:06:54.190Z,17.02
2023-05-17T02:09:21.578Z,17.07
2023-05-17T02:11:49.281Z,17.09
2023-05-17T02:14:16.767Z,16.99
2023-05-17T02:16:45.615Z,16.94
2023-05-17T02:19:12.397Z,16.74
2023-05-17T02:21:39.356Z,16.61
2023-05-17T02:24:06.692Z,16.63
2023-05-17T02:26:33.923Z,16.68
2023-05-17T02:29:01.115Z,16.66
2023-05-17T02:31:28.660Z,16.74
2023-05-17T02:33:58.415Z,16.58
2023-05-17T02:36:25.693Z,16.52
2023-05-17T02:38:53.053Z,16.55
2023-05-17T02:41:20.370Z,16.46
2023-05-17T02:43:47.771Z,16.45
2023-05-17T02:46:15.071Z,16.57
2023-05-17T02:48:43.220Z,16.57
2023-05-17T02:51:11.536Z,16.53
2023-05-17T02:53:38.785Z,16.49
2023-05-17T02:56:06.689Z,16.67
2023-05-17T02:58:34.167Z,16.88
2023-05-17T03:01:01.115Z,17.11
2023-05-17T03:03:28.481Z,17.14
2023-05-17T03:05:59.884Z,17.16
2023-05-17T03:08:29.515Z,17.12
2023-05-17T03:10:56.349Z,17.04
2023-05-17T03:13:23.965Z,17.11
2023-05-17T03:15:51.392Z,17.03
2023-05-17T03:18:18.859Z,17.04
2023-05-17T03:20:46.330Z,17.13
2023-05-17T03:23:13.719Z,17.21
2023-05-17T03:25:42.923Z,17.21
2023-05-17T03:28:10.159Z,17.28
2023-05-17T03:30:39.686Z,17.43
2023-05-17T03:33:07.246Z,17.40
2023-05-17T03:35:34.826Z,17.42
2023-05-17T03:38:02.364Z,17.42
2023-05-17T03:40:29.570Z,17.37
2023-05-17T03:42:58.226Z,17.26
2023-05-17T03:45:25.957Z,17.14
2023-05-17T03:47:53.445Z,17.05
2023-05-17T03:50:20.338Z,17.01
2023-05-17T03:52:47.554Z,17.01
2023-05-17T03:55:14.721Z,17.15
2023-05-17T03:57:42.038Z,17.20
2023-05-17T04:00:12.093Z,17.11
2023-05-17T04:02:39.520Z,17.20
2023-05-17T04:05:07.654Z,17.12
2023-05-17T04:07:35.268Z,17.12
2023-05-17T04:10:02.578Z,17.07
2023-05-17T04:12:29.264Z,17.14
2023-05-17T04:14:56.748Z,17.04
2023-05-17T04:17:25.174Z,16.95
2023-05-17T04:19:52.603Z,16.97
2023-05-17T04:22:20.598Z,16.95
2023-05-17T04:24:48.209Z,16.93
2023-05-17T04:27:14.862Z,17.08
2023-05-17T04:29:42.030Z,17.16
2023-05-17T04:32:09.376Z,17.18
2023-05-17T04:34:37.678Z,17.23
2023-05-17T04:37:07.370Z,17.25
2023-05-17T04:39:34.719Z,17.35
2023-05-17T04:42:01.532Z,17.43
2023-05-17T04:44:29.335Z,17.29
2023-05-17T04:46:57.094Z,17.01
2023-05-17T04:49:24.372Z,17.02
2023-05-17T04:51:53.205Z,17.22
2023-05-17T04:54:20.565Z,17.34
2023-05-17T04:56:47.502Z,17.48
2023-05-17T04:59:15.541Z,17.50
2023-05-17T05:01:42.877Z,17.65
2023-05-17T05:04:10.556Z,17.68
2023-05-17T05:06:37.526Z,17.59
2023-05-17T05:09:06.715Z,17.59
2023-05-17T05:11:34.399Z,17.49
2023-05-17T05:14:02.223Z,17.35
2023-05-17T05:16:29.361Z,17.31
2023-05-17T05:18:56.893Z,17.07
2023-05-17T05:21:24.281Z,17.01
2023-05-17T05:23:51.757Z,16.88
2023-05-17T05:26:20.207Z,17.21
2023-05-17T05:28:47.968Z,17.15
2023-05-17T05:31:15.242Z,17.40
2023-05-17T05:33:42.545Z,17.42
2023-05-17T05:36:10.378Z,17.51
2023-05-17T05:38:37.660Z,17.44
2023-05-17T05:41:04.935Z,17.50
2023-05-17T05:43:34.261Z,17.98
2023-05-17T05:46:01.886Z,18.30
2023-05-17T05:48:28.747Z,18.81
2023-05-17T05:50:56.447Z,19.35
2023-05-17T05:53:23.901Z,19.60
2023-05-17T05:55:51.858Z,19.50
2023-05-17T05:58:19.270Z,19.47
2023-05-17T06:00:49.337Z,19.72
2023-05-17T06:03:16.087Z,19.82
2023-05-17T06:05:42.923Z,19.89
2023-05-17T06:08:10.774Z,19.71
2023-05-17T06:10:38.076Z,19.83
2023-05-17T06:13:05.888Z,20.25
2023-05-17T06:15:34.382Z,20.63
2023-05-17T06:18:03.354Z,20.82
2023-05-17T06:20:31.196Z,20.95
2023-05-17T06:22:58.710Z,21.16
2023-05-17T06:25:26.168Z,21.76
2023-05-17T06:27:53.816Z,22.67
2023-05-17T06:30:21.192Z,22.64
2023-05-17T06:32:48.585Z,22.59
2023-05-17T06:35:17.506Z,22.41
2023-05-17T06:37:44.739Z,22.39
2023-05-17T06:40:16.450Z,22.57
2023-05-17T06:42:44.955Z,22.40
2023-05-17T06:45:12.644Z,21.98
2023-05-17T06:47:40.141Z,21.73
2023-05-17T06:50:09.589Z,21.84
2023-05-17T06:52:38.361Z,21.85
2023-05-17T06:55:06.504Z,21.92
2023-05-17T06:57:34.152Z,22.09
2023-05-17T07:00:01.404Z,22.36
2023-05-17T07:02:28.743Z,22.27
2023-05-17T07:04:56.367Z,21.97
2023-05-17T07:07:23.633Z,21.59
2023-05-17T07:09:52.945Z,21.33
2023-05-17T07:12:20.349Z,20.97
2023-05-17T07:14:47.877Z,20.83
2023-05-17T07:17:15.129Z,21.20
2023-05-17T07:19:42.803Z,21.17
2023-05-17T07:22:10.204Z,21.16
2023-05-17T07:24:37.498Z,21.16
2023-05-17T07:27:06.686Z,20.74
2023-05-17T07:29:34.551Z,20.90
2023-05-17T07:32:01.898Z,21.30
2023-05-17T07:34:30.699Z,21.52
2023-05-17T07:36:57.400Z,21.51
2023-05-17T07:39:24.624Z,21.71
2023-05-17T07:41:52.723Z,21.83
2023-05-17T07:44:21.386Z,21.62
2023-05-17T07:46:49.213Z,21.26
2023-05-17T07:49:16.324Z,21.62
2023-05-17T07:51:43.711Z,21.38
2023-05-17T07:54:13.257Z,21.92
2023-05-17T07:56:40.828Z,22.19
2023-05-17T10:06:08.770Z,24.40
2023-05-17T10:08:37.856Z,24.62
2023-05-17T10:11:09.146Z,25.42
2023-05-17T10:13:44.812Z,25.68
2023-05-17T10:16:13.403Z,26.30
2023-05-17T10:18:40.879Z,26.64
2023-05-17T10:21:11.392Z,26.13
2023-05-17T10:23:41.276Z,25.96
2023-05-17T10:26:09.568Z,24.90
2023-05-17T10:28:37.415Z,23.57
2023-05-17T10:31:05.344Z,23.26
2023-05-17T10:33:33.014Z,22.96
2023-05-17T10:36:02.632Z,22.68
2023-05-17T10:38:41.824Z,22.54
2023-05-17T10:41:11.304Z,23.15
2023-05-17T10:43:41.392Z,23.79
2023-05-17T10:46:15.749Z,23.93
2023-05-17T10:48:44.325Z,24.47
2023-05-17T10:51:11.867Z,24.93
2023-05-17T10:54:20.386Z,24.77
2023-05-17T10:56:50.208Z,24.25
2023-05-17T10:59:19.757Z,24.08
2023-05-17T11:01:51.962Z,23.94
2023-05-17T11:04:24.428Z,23.42
2023-05-17T11:07:16.111Z,23.32
2023-05-17T11:09:45.925Z,23.63
2023-05-17T11:12:14.417Z,23.99
2023-05-17T11:14:48.376Z,24.02
2023-05-17T11:17:17.185Z,23.79
2023-05-17T11:19:56.107Z,23.91
2023-05-17T11:22:23.997Z,24.84
2023-05-17T11:24:57.280Z,25.48
2023-05-17T11:27:24.663Z,25.13
2023-05-17T11:29:51.372Z,23.97
2023-05-17T11:32:18.752Z,23.47
2023-05-17T11:34:52.697Z,23.16
2023-05-17T11:37:26.816Z,23.38
2023-05-17T11:40:07.130Z,23.49
2023-05-17T11:42:35.124Z,23.74
2023-05-17T11:45:02.286Z,23.81
2023-05-17T11:47:29.851Z,23.55
2023-05-17T11:50:01.942Z,23.59
2023-05-17T11:52:29.898Z,23.66
2023-05-17T11:54:58.808Z,23.36
2023-05-17T11:57:32.608Z,22.92
2023-05-17T12:00:00.458Z,22.82
2023-05-17T12:02:29.417Z,23.20
2023-05-17T12:04:57.273Z,23.51
2023-05-17T12:07:25.789Z,23.74
2023-05-17T12:09:53.061Z,23.64
2023-05-17T12:12:21.170Z,23.23
2023-05-17T12:14:50.004Z,23.47
2023-05-17T12:17:25.070Z,23.01
2023-05-17T12:19:55.466Z,22.88
2023-05-17T12:22:23.424Z,23.20
2023-05-17T12:24:50.777Z,23.52
2023-05-17T12:27:26.108Z,22.80
2023-05-17T12:29:55.230Z,23.37
2023-05-17T12:32:22.348Z,23.29
2023-05-17T12:34:49.749Z,23.66
2023-05-17T12:37:17.467Z,23.21
2023-05-17T12:39:45.050Z,23.02
2023-05-17T12:42:11.917Z,23.11
2023-05-17T12:44:39.953Z,23.09
2023-05-17T12:47:10.351Z,22.79
2023-05-17T12:49:52.192Z,23.09
2023-05-17T12:52:19.359Z,23.64
2023-05-17T12:54:46.309Z,23.75
2023-05-17T12:57:14.213Z,23.56
2023-05-17T12:59:49.080Z,23.56
2023-05-17T13:02:19.968Z,23.61
2023-05-17T13:04:46.846Z,23.70
2023-05-17T13:07:22.719Z,23.97
2023-05-17T13:09:49.561Z,24.00
2023-05-17T13:12:20.669Z,23.86
2023-05-17T13:14:50.089Z,23.40
2023-05-17T13:17:20.170Z,23.28
2023-05-17T13:19:47.680Z,22.81
2023-05-17T13:22:15.439Z,23.14
2023-05-17T13:24:43.533Z,23.17
2023-05-17T13:27:10.862Z,23.27
2023-05-17T13:29:41.976Z,23.35
2023-05-17T13:32:11.012Z,23.34
2023-05-17T13:34:40.201Z,23.18
2023-05-17T13:37:11.084Z,23.16
2023-05-17T13:39:39.478Z,23.28
2023-05-17T13:42:07.107Z,23.67
2023-05-17T13:44:34.443Z,23.62
2023-05-17T13:47:01.389Z,23.67
2023-05-17T13:49:28.765Z,23.82
2023-05-17T13:51:57.072Z,23.95
2023-05-17T13:54:23.937Z,24.21
2023-05-17T13:56:51.401Z,24.16
2023-05-17T13:59:18.888Z,24.37
2023-05-17T14:01:45.955Z,24.63
2023-05-17T14:04:13.551Z,24.49
2023-05-17T14:06:42.541Z,24.96
2023-05-17T14:09:11.788Z,25.14
2023-05-17T14:11:39.883Z,25.25
2023-05-17T14:14:07.351Z,25.21
2023-05-17T14:16:34.926Z,25.40
2023-05-17T14:19:04.569Z,25.34
2023-05-17T14:21:32.163Z,24.93
2023-05-17T14:23:59.133Z,25.17
2023-05-17T14:26:27.352Z,25.18
2023-05-17T14:28:54.614Z,25.05
2023-05-17T14:31:21.574Z,25.11
2023-05-17T14:33:48.902Z,25.37
2023-05-17T14:36:16.072Z,25.59
2023-05-17T14:38:42.830Z,25.88
2023-05-17T14:41:10.152Z,25.78
2023-05-17T14:43:38.452Z,25.20
2023-05-17T14:46:05.432Z,25.36
2023-05-17T14:48:32.972Z,25.43
2023-05-17T14:51:00.472Z,25.61
2023-05-17T14:53:28.005Z,25.77
2023-05-17T14:55:55.522Z,25.65
2023-05-17T14:58:22.220Z,25.87
2023-05-17T15:00:52.235Z,25.67
2023-05-17T15:03:22.385Z,24.99
2023-05-17T15:05:54.649Z,25.30
2023-05-17T15:08:22.635Z,25.57
2023-05-17T15:10:50.280Z,25.75
2023-05-17T15:13:17.326Z,25.77
2023-05-17T15:15:44.769Z,26.02
2023-05-17T15:18:13.377Z,25.76
2023-05-17T15:20:41.324Z,25.83
2023-05-17T15:23:08.474Z,26.04
2023-05-17T15:25:35.614Z,26.08
2023-05-17T15:28:02.467Z,25.27
2023-05-17T15:30:30.051Z,25.41
2023-05-17T15:32:59.068Z,25.73
2023-05-17T15:35:28.085Z,25.55
2023-05-17T15:37:58.490Z,25.53
2023-05-17T15:40:25.814Z,25.33
2023-05-17T15:42:53.249Z,25.65
2023-05-17T15:45:20.678Z,25.63
2023-05-17T15:47:47.475Z,25.67
2023-05-17T15:50:15.066Z,25.32
2023-05-17T15:52:44.082Z,25.45
2023-05-17T15:55:11.332Z,25.65
2023-05-17T15:57:38.993Z,25.60
2023-05-17T16:00:07.408Z,25.44
2023-05-17T16:02:34.433Z,25.20
2023-05-17T16:05:03.859Z,25.27
2023-05-17T16:07:31.105Z,25.39
2023-05-17T16:09:59.448Z,25.57
2023-05-17T16:12:26.219Z,25.54
2023-05-17T16:14:53.668Z,25.65
2023-05-17T16:17:21.805Z,25.63
2023-05-17T16:19:49.537Z,25.55
2023-05-17T16:22:16.451Z,25.59
2023-05-17T16:24:43.111Z,25.45
2023-05-17T16:27:11.326Z,25.14
2023-05-17T16:29:38.085Z,25.06
2023-05-17T16:32:05.864Z,25.28
2023-05-17T16:34:33.192Z,25.17
2023-05-17T16:36:59.853Z,25.12
2023-05-17T16:39:26.651Z,25.24
2023-05-17T16:41:53.792Z,25.01
2023-05-17T16:44:22.239Z,25.01
2023-05-17T16:46:49.212Z,25.00
2023-05-17T16:49:16.106Z,25.15
2023-05-17T16:51:42.911Z,25.10
2023-05-17T16:54:09.803Z,24.82
2023-05-17T16:56:36.543Z,24.87
2023-05-17T16:59:03.380Z,24.65
2023-05-17T17:01:31.646Z,24.76
2023-05-17T17:03:58.544Z,24.69
2023-05-17T17:06:25.336Z,24.60
2023-05-17T17:08:52.595Z,24.88
2023-05-17T17:11:20.109Z,25.24
2023-05-17T17:13:46.896Z,24.81
2023-05-17T17:16:14.105Z,24.97
2023-05-17T17:18:42.377Z,25.15
2023-05-17T17:21:09.196Z,25.00
2023-05-17T17:23:36.329Z,24.92
2023-05-17T17:26:03.405Z,24.64
2023-05-17T17:28:30.138Z,24.48
2023-05-17T17:30:56.960Z,24.40
2023-05-17T17:33:23.846Z,24.44
2023-05-17T17:35:52.176Z,24.44
2023-05-17T17:38:19.361Z,24.49
2023-05-17T17:40:46.699Z,24.50
2023-05-17T17:43:14.591Z,24.62
2023-05-17T17:45:42.092Z,24.60
2023-05-17T17:48:09.532Z,24.50
2023-05-17T17:50:37.141Z,24.57
2023-05-17T17:53:05.930Z,24.60
2023-05-17T17:55:33.137Z,24.63
2023-05-17T17:58:00.405Z,24.68
2023-05-17T18:00:27.445Z,24.48
2023-05-17T18:02:55.859Z,24.53
2023-05-17T18:05:23.352Z,24.45
2023-05-17T18:07:50.668Z,24.41
2023-05-17T18:10:20.648Z,24.47
2023-05-17T18:12:49.591Z,24.35
2023-05-17T18:15:18.377Z,24.35
2023-05-17T18:17:45.608Z,24.30
2023-05-17T18:20:12.537Z,24.39
2023-05-17T18:22:39.380Z,24.27
2023-05-17T18:25:06.967Z,24.24
2023-05-17T18:27:35.242Z,24.14
2023-05-17T18:30:02.301Z,23.98
2023-05-17T18:32:29.528Z,23.91
2023-05-17T18:34:56.553Z,23.89
2023-05-17T18:37:23.415Z,23.91
2023-05-17T18:39:50.719Z,23.94
2023-05-17T18:42:17.958Z,23.85
2023-05-17T18:44:47.129Z,23.86
2023-05-17T18:47:14.609Z,23.83
2023-05-17T18:49:42.000Z,23.82
2023-05-17T18:52:09.419Z,23.61
2023-05-17T18:54:36.123Z,23.66
2023-05-17T18:57:03.049Z,23.71
2023-05-17T18:59:30.272Z,23.71
2023-05-17T19:01:58.470Z,23.69
2023-05-17T19:04:25.363Z,23.70
2023-05-17T19:06:52.406Z,23.74
2023-05-17T19:09:19.258Z,23.71
2023-05-17T19:11:46.009Z,23.69
2023-05-17T19:14:13.081Z,23.60
2023-05-17T19:16:39.883Z,23.53
2023-05-17T19:19:08.375Z,23.54
2023-05-17T19:21:35.478Z,23.51
2023-05-17T19:24:02.306Z,23.57
2023-05-17T19:26:29.173Z,23.56
2023-05-17T19:28:56.351Z,23.52
2023-05-17T19:31:23.694Z,23.49
2023-05-17T19:33:50.979Z,23.44
2023-05-17T19:36:19.832Z,23.42
2023-05-17T19:38:46.620Z,23.48
2023-05-17T19:41:13.921Z,23.39
2023-05-17T19:43:41.987Z,23.38
2023-05-17T19:46:09.497Z,23.38
2023-05-17T19:48:36.935Z,23.31
2023-05-17T19:51:04.627Z,23.38
2023-05-17T19:53:44.182Z,23.35
2023-05-17T19:56:18.694Z,23.24
2023-05-17T19:58:46.318Z,23.20
2023-05-17T20:01:13.453Z,23.13
2023-05-17T20:03:41.404Z,23.14
2023-05-17T20:06:08.700Z,23.12
2023-05-17T20:08:37.047Z,23.01
2023-05-17T20:11:04.089Z,22.93
2023-05-17T20:13:30.900Z,22.90
2023-05-17T20:15:57.719Z,22.90
2023-05-17T20:18:24.614Z,22.82
2023-05-17T20:20:51.433Z,22.82
2023-05-17T20:23:18.237Z,22.79
2023-05-17T20:25:46.534Z,22.69
2023-05-17T20:28:13.418Z,22.57
2023-05-17T20:30:43.838Z,22.65
2023-05-17T20:33:10.985Z,22.48
2023-05-17T20:35:37.797Z,22.50
2023-05-17T20:38:04.446Z,22.46
2023-05-17T20:40:31.692Z,22.44
2023-05-17T20:43:00.066Z,22.44
2023-05-17T20:45:26.786Z,22.41
2023-05-17T20:47:54.237Z,22.41
2023-05-17T20:50:21.748Z,22.39
2023-05-17T20:52:48.997Z,22.35
2023-05-17T20:55:15.794Z,22.34
2023-05-17T20:57:42.641Z,22.34
2023-05-17T21:00:12.632Z,22.35
2023-05-17T21:02:40.016Z,22.32
2023-05-17T21:05:07.057Z,22.29
2023-05-17T21:07:33.898Z,22.23
2023-05-17T21:10:01.388Z,22.20
2023-05-17T21:12:28.184Z,22.15
2023-05-17T21:15:14.399Z,22.14
2023-05-17T21:17:43.065Z,22.05
2023-05-17T21:20:11.597Z,21.92
2023-05-17T21:22:38.365Z,22.01
2023-05-17T21:25:07.005Z,22.01
2023-05-17T21:27:34.304Z,22.05
2023-05-17T21:30:01.470Z,21.88
2023-05-17T21:32:28.465Z,21.79
2023-05-17T21:35:45.432Z,21.74
2023-05-17T21:39:06.313Z,21.72
2023-05-17T21:41:34.809Z,21.66
2023-05-17T21:44:02.101Z,21.63
2023-05-17T21:46:29.020Z,21.52
2023-05-17T21:48:55.919Z,21.66
2023-05-17T21:51:22.684Z,21.52
2023-05-17T21:53:49.654Z,21.52
2023-05-17T21:56:16.577Z,21.49
2023-05-17T21:58:44.658Z,21.49
2023-05-17T22:01:12.352Z,21.52
2023-05-17T22:03:39.446Z,21.48
2023-05-17T22:06:07.016Z,21.39
2023-05-17T22:08:34.159Z,21.41
2023-05-17T22:11:01.500Z,21.43
2023-05-17T22:13:28.277Z,21.44
2023-05-17T22:15:56.491Z,21.22
2023-05-17T22:18:24.286Z,21.05
2023-05-17T22:20:51.533Z,21.02
2023-05-17T22:23:19.232Z,21.20
2023-05-17T22:25:46.600Z,21.22
2023-05-17T22:28:13.967Z,21.25
2023-05-17T22:30:40.791Z,21.40
2023-05-17T22:33:09.992Z,21.43
2023-05-17T22:35:37.346Z,21.37
2023-05-17T22:38:04.903Z,21.40
2023-05-17T22:40:32.594Z,21.35
2023-05-17T23:54:32.177Z,21.05
2023-05-17T23:57:00.892Z,21.01
2023-05-17T23:59:28.914Z,21.01
